Ryozan Maru — JG5364 — position and weather

sailwx.info

Track history (hours):
 
Tides and Currents Weather Stations Pressure Air Temp Water Temp Dewpoint Dewpoint Depression Visibility Wind Speed Wind Dir Waves Ship Positions

Ryozan Maru

Last reported at 2018-Jun-14 13:35 UTC. Time now 2018-Jun-19 10:53 UTC.
Position N 33°52' E 135°03'.

Length 65 m; draft 4 m.

Type: Tanker. MMSI: 431100316.

Date/timePositionNaut miles runAvg speedWind from/ knotsBaromVisibWave heightAir tempDewpointWater temp
2018-Jun-14 13:35N 33°52' E 135°03'213.2
2018-Jun-14 13:27N 33°53' E 135°02'712.3
2018-Jun-14 12:52N 34°00' E 135°01'411.6
2018-Jun-14 12:30N 34°05' E 135°00'611.7
2018-Jun-14 12:00N 34°10' E 134°59'611.0
2018-Jun-14 11:30N 34°16' E 134°59'4 8.2
2018-Jun-14 11:00N 34°20' E 134°59'510.3
2018-Jun-14 10:30N 34°25' E 135°01'510.7
2018-Jun-14 10:00N 34°30' E 135°02'5 9.8
2018-Jun-14 09:30N 34°35' E 135°03'14 9.4
2018-Jun-14 08:01N 34°32' E 134°47'112.2
2018-Jun-14 07:58N 34°32' E 134°46'612.2
2018-Jun-14 07:30N 34°29' E 134°40'612.3
2018-Jun-14 07:00N 34°27' E 134°33'612.4
2018-Jun-14 06:30N 34°25' E 134°26'4 0.2
2018-Jun-13 10:41N 34°25' E 134°20'213.1
2018-Jun-13 10:30N 34°26' E 134°23'613.0
2018-Jun-13 10:00N 34°28' E 134°31'713.0
2018-Jun-13 09:28N 34°31' E 134°38'613.4
2018-Jun-13 09:00N 34°33' E 134°45'1014.2
2018-Jun-13 08:17N 34°37' E 134°57'412.6
2018-Jun-13 07:58N 34°37' E 135°02'511.0
2018-Jun-13 07:30N 34°35' E 135°08'611.5
2018-Jun-13 07:00N 34°34' E 135°14'4 8.7
2018-Jun-13 06:30N 34°33' E 135°19'5 9.0
2018-Jun-13 06:00N 34°32' E 135°25'0 0.0
2018-Jun-13 00:54N 34°32' E 135°25'1 1.9
2018-Jun-13 00:27N 34°32' E 135°24'3 7.4
2018-Jun-13 00:00N 34°32' E 135°20'0 0.0
2018-Jun-12 21:13N 34°32' E 135°20'0 0.0
2018-Jun-12 20:58N 34°32' E 135°20'0 0.0
2018-Jun-12 20:28N 34°32' E 135°20'0 0.0
2018-Jun-12 19:55N 34°32' E 135°20'0 0.1
2018-Jun-12 19:25N 34°32' E 135°20'3 7.1
2018-Jun-12 19:00N 34°33' E 135°16'612.2
2018-Jun-12 18:30N 34°34' E 135°09'714.2
2018-Jun-12 18:01N 34°37' E 135°01'1213.3
2018-Jun-12 17:05N 34°33' E 134°47'112.4
2018-Jun-12 16:59N 34°32' E 134°46'712.5
2018-Jun-12 16:25N 34°29' E 134°38'512.2
2018-Jun-12 16:00N 34°28' E 134°32'612.1
2018-Jun-12 15:29N 34°25' E 134°25'  
2018-Jun-08 10:40N 34°21' E 134°27'211.9
2018-Jun-08 10:29N 34°20' E 134°29'1010.9
2018-Jun-08 09:34N 34°14' E 134°39'0 7.6
2018-Jun-08 09:30N 34°14' E 134°39'911.9
2018-Jun-08 08:46N 34°07' E 134°46'312.6
2018-Jun-08 08:31N 34°04' E 134°48'612.4
2018-Jun-08 08:01N 33°59' E 134°53'712.4
2018-Jun-08 07:25N 33°54' E 134°59'250 5.1
2018-Jun-06 06:19N 35°16' E 139°46'412.3
2018-Jun-06 06:00N 35°19' E 139°43'611.3
2018-Jun-06 05:30N 35°24' E 139°43'611.7
2018-Jun-06 05:00N 35°29' E 139°48'3 6.0
2018-Jun-06 04:30N 35°30' E 139°45'0 0.0
2018-Jun-06 04:00N 35°30' E 139°45'0 0.1
2018-Jun-06 03:30N 35°30' E 139°45'0 0.1
2018-Jun-06 03:00N 35°30' E 139°45'0 0.0
2018-Jun-06 02:30N 35°30' E 139°45'0 0.0
2018-Jun-06 01:59N 35°30' E 139°45'0 0.1
2018-Jun-06 01:29N 35°30' E 139°45'0 0.1
2018-Jun-06 01:00N 35°30' E 139°45'0 0.0
2018-Jun-06 00:29N 35°30' E 139°45'0 0.0
2018-Jun-05 23:58N 35°30' E 139°45'0 0.0
2018-Jun-05 23:29N 35°30' E 139°45'0 0.7
2018-Jun-05 23:00N 35°30' E 139°45'3 5.3
2018-Jun-05 22:30N 35°30' E 139°48'1 1.3
2018-Jun-05 22:00N 35°29' E 139°49'0 0.0
2018-Jun-05 21:27N 35°29' E 139°49'0 0.0
2018-Jun-05 21:00N 35°29' E 139°49'0 0.0
2018-Jun-05 20:30N 35°29' E 139°49'0 0.0
2018-Jun-05 20:00N 35°29' E 139°49'0 0.0
2018-Jun-05 19:30N 35°29' E 139°49'0 0.0
2018-Jun-05 19:00N 35°29' E 139°49'0 0.0
2018-Jun-05 18:30N 35°29' E 139°49'0 0.0
2018-Jun-05 17:57N 35°29' E 139°49'0 0.0
2018-Jun-05 17:30N 35°29' E 139°49'0 0.0
2018-Jun-05 17:00N 35°29' E 139°49'0 0.0
2018-Jun-05 16:30N 35°29' E 139°49'0 0.0
2018-Jun-05 16:00N 35°29' E 139°49'0 0.0
2018-Jun-05 15:30N 35°29' E 139°49'0 0.0
2018-Jun-05 14:57N 35°29' E 139°49'0 0.0
2018-Jun-05 14:30N 35°29' E 139°49'0 0.0
2018-Jun-05 13:57N 35°29' E 139°49'0 0.0
2018-Jun-05 13:27N 35°29' E 139°49'0 0.0
2018-Jun-05 13:00N 35°29' E 139°49'0 0.0
2018-Jun-05 12:27N 35°29' E 139°49'0 0.0
2018-Jun-05 11:57N 35°29' E 139°49'0 0.0
2018-Jun-05 11:30N 35°29' E 139°49'0 0.0
2018-Jun-05 10:54N 35°29' E 139°49'0 0.0
2018-Jun-05 10:27N 35°29' E 139°49'0 0.0
2018-Jun-05 09:54N 35°29' E 139°49'0 0.0
2018-Jun-05 09:30N 35°29' E 139°49'0 0.0
2018-Jun-05 09:00N 35°29' E 139°49'0 0.0
2018-Jun-05 08:30N 35°29' E 139°49'0 0.0
2018-Jun-05 08:00N 35°29' E 139°49'0 0.0
2018-Jun-05 07:30N 35°29' E 139°49'0 0.0
2018-Jun-05 07:00N 35°29' E 139°49'0 0.0
2018-Jun-05 06:27N 35°29' E 139°49'0 0.0
2018-Jun-05 06:00N 35°29' E 139°49'0 0.1
2018-Jun-05 04:45N 35°29' E 139°49'0 0.0
2018-Jun-05 04:30N 35°29' E 139°49'0 0.0
2018-Jun-05 03:48N 35°29' E 139°49'0 0.0
2018-Jun-05 03:27N 35°29' E 139°49'0 0.0
2018-Jun-05 03:00N 35°29' E 139°49'0 0.0
2018-Jun-05 02:30N 35°29' E 139°49'0 0.0
2018-Jun-05 01:57N 35°29' E 139°49'0 0.0
2018-Jun-05 01:30N 35°29' E 139°49'0 0.1
2018-Jun-05 01:00N 35°29' E 139°49'5 9.0
2018-Jun-05 00:30N 35°26' E 139°46'3 5.7
2018-Jun-05 00:01N 35°26' E 139°42'4 7.3
2018-Jun-04 23:30N 35°29' E 139°39'0 0.0
2018-Jun-04 23:00N 35°29' E 139°39'0 0.0
2018-Jun-04 22:30N 35°29' E 139°39'0 0.0
2018-Jun-04 22:00N 35°29' E 139°39'0 0.1
2018-Jun-04 21:30N 35°29' E 139°39'0 0.0
2018-Jun-04 21:00N 35°29' E 139°39'0 0.0
2018-Jun-04 20:30N 35°29' E 139°39'0 0.0
2018-Jun-04 20:00N 35°29' E 139°39'0 0.0
2018-Jun-04 19:30N 35°29' E 139°39'0 0.0
2018-Jun-04 19:00N 35°29' E 139°39'0 0.0
2018-Jun-04 18:30N 35°29' E 139°39'0 0.1
2018-Jun-04 18:00N 35°29' E 139°39'0 0.0
2018-Jun-04 17:30N 35°29' E 139°39'0 0.1
2018-Jun-04 17:00N 35°29' E 139°39'0 0.1
2018-Jun-04 16:30N 35°29' E 139°39'0 0.1
2018-Jun-04 16:00N 35°29' E 139°39'0 0.1
2018-Jun-04 15:30N 35°29' E 139°39'0 0.1
2018-Jun-04 15:00N 35°29' E 139°39'0 0.1
2018-Jun-04 14:30N 35°29' E 139°39'0 0.0
2018-Jun-04 14:00N 35°29' E 139°39'  
Track history (hours):
 
Tides and Currents Weather Stations Pressure Air Temp Water Temp Dewpoint Dewpoint Depression Visibility Wind Speed Wind Dir Waves Ship Positions

Ryozan Maru

Last reported at 2018-Jun-14 13:35 UTC. Time now 2018-Jun-19 10:53 UTC.
Position N 33°52' E 135°03'.

Length 65 m; draft 4 m.

Type: Tanker. MMSI: 431100316.

Date/timePositionNaut miles runAvg speedWind from/ knotsBaromVisibWave heightAir tempDewpointWater temp
2018-Jun-14 13:35N 33°52' E 135°03'213.2
2018-Jun-14 13:27N 33°53' E 135°02'712.3
2018-Jun-14 12:52N 34°00' E 135°01'411.6
2018-Jun-14 12:30N 34°05' E 135°00'611.7
2018-Jun-14 12:00N 34°10' E 134°59'611.0
2018-Jun-14 11:30N 34°16' E 134°59'4 8.2
2018-Jun-14 11:00N 34°20' E 134°59'510.3
2018-Jun-14 10:30N 34°25' E 135°01'510.7
2018-Jun-14 10:00N 34°30' E 135°02'5 9.8
2018-Jun-14 09:30N 34°35' E 135°03'14 9.4
2018-Jun-14 08:01N 34°32' E 134°47'112.2
2018-Jun-14 07:58N 34°32' E 134°46'612.2
2018-Jun-14 07:30N 34°29' E 134°40'612.3
2018-Jun-14 07:00N 34°27' E 134°33'612.4
2018-Jun-14 06:30N 34°25' E 134°26'4 0.2
2018-Jun-13 10:41N 34°25' E 134°20'213.1
2018-Jun-13 10:30N 34°26' E 134°23'613.0
2018-Jun-13 10:00N 34°28' E 134°31'713.0
2018-Jun-13 09:28N 34°31' E 134°38'613.4
2018-Jun-13 09:00N 34°33' E 134°45'1014.2
2018-Jun-13 08:17N 34°37' E 134°57'412.6
2018-Jun-13 07:58N 34°37' E 135°02'511.0
2018-Jun-13 07:30N 34°35' E 135°08'611.5
2018-Jun-13 07:00N 34°34' E 135°14'4 8.7
2018-Jun-13 06:30N 34°33' E 135°19'5 9.0
2018-Jun-13 06:00N 34°32' E 135°25'0 0.0
2018-Jun-13 00:54N 34°32' E 135°25'1 1.9
2018-Jun-13 00:27N 34°32' E 135°24'3 7.4
2018-Jun-13 00:00N 34°32' E 135°20'0 0.0
2018-Jun-12 21:13N 34°32' E 135°20'0 0.0
2018-Jun-12 20:58N 34°32' E 135°20'0 0.0
2018-Jun-12 20:28N 34°32' E 135°20'0 0.0
2018-Jun-12 19:55N 34°32' E 135°20'0 0.1
2018-Jun-12 19:25N 34°32' E 135°20'3 7.1
2018-Jun-12 19:00N 34°33' E 135°16'612.2
2018-Jun-12 18:30N 34°34' E 135°09'714.2
2018-Jun-12 18:01N 34°37' E 135°01'1213.3
2018-Jun-12 17:05N 34°33' E 134°47'112.4
2018-Jun-12 16:59N 34°32' E 134°46'712.5
2018-Jun-12 16:25N 34°29' E 134°38'512.2
2018-Jun-12 16:00N 34°28' E 134°32'612.1
2018-Jun-12 15:29N 34°25' E 134°25'  
2018-Jun-08 10:40N 34°21' E 134°27'211.9
2018-Jun-08 10:29N 34°20' E 134°29'1010.9
2018-Jun-08 09:34N 34°14' E 134°39'0 7.6
2018-Jun-08 09:30N 34°14' E 134°39'911.9
2018-Jun-08 08:46N 34°07' E 134°46'312.6
2018-Jun-08 08:31N 34°04' E 134°48'612.4
2018-Jun-08 08:01N 33°59' E 134°53'712.4
2018-Jun-08 07:25N 33°54' E 134°59'250 5.1
2018-Jun-06 06:19N 35°16' E 139°46'412.3
2018-Jun-06 06:00N 35°19' E 139°43'611.3
2018-Jun-06 05:30N 35°24' E 139°43'611.7
2018-Jun-06 05:00N 35°29' E 139°48'3 6.0
2018-Jun-06 04:30N 35°30' E 139°45'0 0.0
2018-Jun-06 04:00N 35°30' E 139°45'0 0.1
2018-Jun-06 03:30N 35°30' E 139°45'0 0.1
2018-Jun-06 03:00N 35°30' E 139°45'0 0.0
2018-Jun-06 02:30N 35°30' E 139°45'0 0.0
2018-Jun-06 01:59N 35°30' E 139°45'0 0.1
2018-Jun-06 01:29N 35°30' E 139°45'0 0.1
2018-Jun-06 01:00N 35°30' E 139°45'0 0.0
2018-Jun-06 00:29N 35°30' E 139°45'0 0.0
2018-Jun-05 23:58N 35°30' E 139°45'0 0.0
2018-Jun-05 23:29N 35°30' E 139°45'0 0.7
2018-Jun-05 23:00N 35°30' E 139°45'3 5.3
2018-Jun-05 22:30N 35°30' E 139°48'1 1.3
2018-Jun-05 22:00N 35°29' E 139°49'0 0.0
2018-Jun-05 21:27N 35°29' E 139°49'0 0.0
2018-Jun-05 21:00N 35°29' E 139°49'0 0.0
2018-Jun-05 20:30N 35°29' E 139°49'0 0.0
2018-Jun-05 20:00N 35°29' E 139°49'0 0.0
2018-Jun-05 19:30N 35°29' E 139°49'0 0.0
2018-Jun-05 19:00N 35°29' E 139°49'0 0.0
2018-Jun-05 18:30N 35°29' E 139°49'0 0.0
2018-Jun-05 17:57N 35°29' E 139°49'0 0.0
2018-Jun-05 17:30N 35°29' E 139°49'0 0.0
2018-Jun-05 17:00N 35°29' E 139°49'0 0.0
2018-Jun-05 16:30N 35°29' E 139°49'0 0.0
2018-Jun-05 16:00N 35°29' E 139°49'0 0.0
2018-Jun-05 15:30N 35°29' E 139°49'0 0.0
2018-Jun-05 14:57N 35°29' E 139°49'0 0.0
2018-Jun-05 14:30N 35°29' E 139°49'0 0.0
2018-Jun-05 13:57N 35°29' E 139°49'0 0.0
2018-Jun-05 13:27N 35°29' E 139°49'0 0.0
2018-Jun-05 13:00N 35°29' E 139°49'0 0.0
2018-Jun-05 12:27N 35°29' E 139°49'0 0.0
2018-Jun-05 11:57N 35°29' E 139°49'0 0.0
2018-Jun-05 11:30N 35°29' E 139°49'0 0.0
2018-Jun-05 10:54N 35°29' E 139°49'0 0.0
2018-Jun-05 10:27N 35°29' E 139°49'0 0.0
2018-Jun-05 09:54N 35°29' E 139°49'0 0.0
2018-Jun-05 09:30N 35°29' E 139°49'0 0.0
2018-Jun-05 09:00N 35°29' E 139°49'0 0.0
2018-Jun-05 08:30N 35°29' E 139°49'0 0.0
2018-Jun-05 08:00N 35°29' E 139°49'0 0.0
2018-Jun-05 07:30N 35°29' E 139°49'0 0.0
2018-Jun-05 07:00N 35°29' E 139°49'0 0.0
2018-Jun-05 06:27N 35°29' E 139°49'0 0.0
2018-Jun-05 06:00N 35°29' E 139°49'0 0.1
2018-Jun-05 04:45N 35°29' E 139°49'0 0.0
2018-Jun-05 04:30N 35°29' E 139°49'0 0.0
2018-Jun-05 03:48N 35°29' E 139°49'0 0.0
2018-Jun-05 03:27N 35°29' E 139°49'0 0.0
2018-Jun-05 03:00N 35°29' E 139°49'0 0.0
2018-Jun-05 02:30N 35°29' E 139°49'0 0.0
2018-Jun-05 01:57N 35°29' E 139°49'0 0.0
2018-Jun-05 01:30N 35°29' E 139°49'0 0.1
2018-Jun-05 01:00N 35°29' E 139°49'5 9.0
2018-Jun-05 00:30N 35°26' E 139°46'3 5.7
2018-Jun-05 00:01N 35°26' E 139°42'4 7.3
2018-Jun-04 23:30N 35°29' E 139°39'0 0.0
2018-Jun-04 23:00N 35°29' E 139°39'0 0.0
2018-Jun-04 22:30N 35°29' E 139°39'0 0.0
2018-Jun-04 22:00N 35°29' E 139°39'0 0.1
2018-Jun-04 21:30N 35°29' E 139°39'0 0.0
2018-Jun-04 21:00N 35°29' E 139°39'0 0.0
2018-Jun-04 20:30N 35°29' E 139°39'0 0.0
2018-Jun-04 20:00N 35°29' E 139°39'0 0.0
2018-Jun-04 19:30N 35°29' E 139°39'0 0.0
2018-Jun-04 19:00N 35°29' E 139°39'0 0.0
2018-Jun-04 18:30N 35°29' E 139°39'0 0.1
2018-Jun-04 18:00N 35°29' E 139°39'0 0.0
2018-Jun-04 17:30N 35°29' E 139°39'0 0.1
2018-Jun-04 17:00N 35°29' E 139°39'0 0.1
2018-Jun-04 16:30N 35°29' E 139°39'0 0.1
2018-Jun-04 16:00N 35°29' E 139°39'0 0.1
2018-Jun-04 15:30N 35°29' E 139°39'0 0.1
2018-Jun-04 15:00N 35°29' E 139°39'0 0.1
2018-Jun-04 14:30N 35°29' E 139°39'0 0.0
2018-Jun-04 14:00N 35°29' E 139°39'  

Dump ship's entire track history